aviador You're here:

KCNK Decoded Metar

CONCORDIA in KS, USA
Report Time2017-07-23 07:55:00
UTC Time2017-07-23 08:45:26
Flight Rules vfr VFR
Wind230° at 06 kt
W.Decomp.*RWY 21: 5.8 kt HW 1.5 kt RCW
RWY 17: 3.5 kt HW 4.9 kt RCW
RWY 30: 1.5 kt HW 5.8 kt LCW
W.Rank230° ranks 35
Current wind is below 230° avg. (8.1)
Visibility9999 m
Phenomena:N/A
Clouds:N/A
CeilingNone
Temp20°C (ISA +8)
Dew Point20°C (100% RH)
QNH1014 hPa
Density Alt2,674 ft
Elevation1,467 ft
Report Wrong Elevation
Raw Report
KCNK 230755Z AUTO 23006KT 10SM CLR 20/20 A2995 RMK AO2 SLP123
T02000200=

Extra information for KCNK:More info

Metar Taf Metar & Taf Last 4 Metars F.Rules Stats Wind Profile Meteogram Temp Stats Airport Information Weather charts Add Link Nearby VenuesMetar ALERT Operation Metar Decoded Social comments

AIRNAV info for KCNK